Greenmountain, North Carolina
Current Conditions -  °F | °C
As of 4:35 PM on Thursday 18 Dec 2014 (Local Time) from K0A9 Reporting Station
Overcast Overcast  
Wind Chill: 34°   Ceiling: 5000
Heat Index: 39°   Visibility: 10mi
Dew Point: 25°   Wind: 7mph
Humidity: 56%   Direction: 250°WSW
Pressure: 30.11"   Gusts: NA
Location:  35.95°N, 82.2°W
Report Text: K0A9 182135Z AUTO 25006KT 10SM OVC050 04/M04 A3011 RMK
Loading
Personal Weather Stations






























Interactive Weather Map New forecast layout! Learn more

10-Day Weather Forecast

Advertisements
Track Severe Weather on mobile